Time;durP1;ratioP1;P1;durP2;ratioP2;P2;SDS_P1;SDS_P2;PMS_P1;PMS_P2;Temp;Humidity;BMP_temperature;BMP_pressure;BME280_temperature;BME280_humidity;BME280_pressure;Samples;Min_cycle;Max_cycle;Signal;HPM_P1;HPM_P2
2022/10/13 00:01:21;;;;;;;17.40;10.70;;;10.10;99.90;;;;;;5045237;28;20037;-74
2022/10/13 00:03:47;;;;;;;18.00;11.73;;;10.10;99.90;;;;;;5044915;28;20049;-74
2022/10/13 00:06:16;;;;;;;16.10;10.63;;;10.10;99.90;;;;;;5045467;28;20037;-74
2022/10/13 00:08:42;;;;;;;20.15;11.85;;;10.20;99.90;;;;;;5044210;28;20056;-75
2022/10/13 00:11:17;;;;;;;27.00;15.05;;;10.20;99.90;;;;;;5045198;28;20049;-74
2022/10/13 00:13:44;;;;;;;22.38;14.38;;;10.20;99.90;;;;;;5043824;28;20041;-74
2022/10/13 00:16:13;;;;;;;27.42;12.77;;;10.20;99.90;;;;;;5045266;28;20136;-74
2022/10/13 00:18:39;;;;;;;20.55;11.07;;;10.20;99.90;;;;;;5045258;28;20045;-74
2022/10/13 00:21:10;;;;;;;18.73;10.93;;;10.20;99.90;;;;;;5027119;28;20044;-75
2022/10/13 00:23:36;;;;;;;14.73;9.68;;;10.20;99.90;;;;;;5044775;28;20147;-74
2022/10/13 00:26:08;;;;;;;22.70;12.20;;;10.20;99.90;;;;;;5036619;28;20071;-75
2022/10/13 00:28:34;;;;;;;17.15;12.02;;;10.20;99.90;;;;;;5042596;28;20033;-74
2022/10/13 00:31:00;;;;;;;17.30;10.90;;;10.20;99.90;;;;;;5045201;28;20075;-74
2022/10/13 00:33:25;;;;;;;16.33;13.23;;;10.20;99.90;;;;;;5044899;28;20044;-74
2022/10/13 00:35:51;;;;;;;20.20;11.38;;;10.20;99.90;;;;;;5044662;28;20400;-74
2022/10/13 00:38:18;;;;;;;21.67;11.75;;;10.20;99.90;;;;;;5044363;28;20037;-75
2022/10/13 00:40:48;;;;;;;25.40;11.50;;;10.20;99.90;;;;;;5044149;28;20084;-75
2022/10/13 00:43:21;;;;;;;15.45;10.30;;;10.20;99.90;;;;;;5043659;28;20033;-74
2022/10/13 00:45:50;;;;;;;19.25;12.30;;;10.20;99.90;;;;;;5044339;28;20048;-74
2022/10/13 00:48:23;;;;;;;18.77;12.90;;;10.20;99.90;;;;;;5044561;28;20091;-74
2022/10/13 00:50:50;;;;;;;16.98;10.93;;;10.20;99.90;;;;;;5044340;28;20099;-75
2022/10/13 00:53:17;;;;;;;14.38;11.80;;;10.20;99.90;;;;;;5044136;28;20108;-74
2022/10/13 00:55:44;;;;;;;23.50;12.50;;;10.20;99.90;;;;;;5043958;28;20045;-75
2022/10/13 00:58:15;;;;;;;24.10;12.27;;;10.20;99.90;;;;;;5025557;28;20049;-74
2022/10/13 01:00:43;;;;;;;17.40;12.98;;;10.30;99.90;;;;;;5026348;28;20045;-74
2022/10/13 01:03:10;;;;;;;18.55;12.45;;;10.20;99.90;;;;;;5026215;28;20072;-75
2022/10/13 01:05:36;;;;;;;28.38;15.15;;;10.30;99.90;;;;;;5043761;28;20041;-74
2022/10/13 01:08:03;;;;;;;20.50;13.05;;;10.30;99.90;;;;;;5043997;28;20398;-75
2022/10/13 01:10:50;;;;;;;17.98;10.60;;;10.30;99.90;;;;;;5044172;28;20056;-75
2022/10/13 01:13:38;;;;;;;19.33;13.13;;;10.20;99.90;;;;;;5025334;28;20547;-74
2022/10/13 01:16:18;;;;;;;17.80;13.40;;;10.30;99.90;;;;;;5043898;28;20128;-74
2022/10/13 01:18:52;;;;;;;19.92;11.70;;;10.20;99.90;;;;;;5043223;28;20052;-74
2022/10/13 01:21:29;;;;;;;18.80;11.27;;;10.20;99.90;;;;;;5044029;28;20037;-75
2022/10/13 01:24:28;;;;;;;18.08;12.55;;;10.20;99.90;;;;;;5043140;28;20064;-75
2022/10/13 01:27:13;;;;;;;18.55;10.13;;;10.20;99.90;;;;;;5005965;28;20531;-74
2022/10/13 01:29:57;;;;;;;16.55;12.55;;;10.30;99.90;;;;;;5023898;28;20053;-74
2022/10/13 01:32:35;;;;;;;15.20;10.77;;;10.30;99.90;;;;;;5038580;28;20045;-75
2022/10/13 01:35:22;;;;;;;21.75;12.93;;;10.30;99.90;;;;;;5025996;28;20122;-75
2022/10/13 01:38:02;;;;;;;14.80;12.10;;;10.30;99.90;;;;;;5043635;28;20053;-74
2022/10/13 01:40:37;;;;;;;32.35;11.93;;;10.30;99.90;;;;;;5025640;28;20044;-74
2022/10/13 01:43:05;;;;;;;17.85;12.57;;;10.30;99.90;;;;;;5042971;28;20056;-75
2022/10/13 01:45:37;;;;;;;21.05;13.07;;;10.30;99.90;;;;;;5043864;28;20132;-75
2022/10/13 01:48:04;;;;;;;20.08;12.63;;;10.30;99.90;;;;;;5043477;28;20541;-75
2022/10/13 01:50:32;;;;;;;18.42;12.35;;;10.30;99.90;;;;;;5044216;28;20044;-74
2022/10/13 01:53:01;;;;;;;25.60;13.88;;;10.30;99.90;;;;;;5043287;28;20597;-75
2022/10/13 01:55:28;;;;;;;26.10;13.93;;;10.20;99.90;;;;;;5026158;28;20081;-74
2022/10/13 01:57:54;;;;;;;19.65;11.90;;;10.30;99.90;;;;;;5041898;28;20052;-75
2022/10/13 02:00:21;;;;;;;21.13;15.00;;;10.30;99.90;;;;;;5025576;28;20094;-75
2022/10/13 02:03:00;;;;;;;21.70;14.98;;;10.20;99.90;;;;;;5025304;28;20056;-74
2022/10/13 02:05:55;;;;;;;15.05;11.82;;;10.30;99.90;;;;;;5043293;28;20049;-74
2022/10/13 02:08:40;;;;;;;17.13;12.15;;;10.20;99.90;;;;;;4971931;28;20356;-74
2022/10/13 02:11:14;;;;;;;17.17;12.70;;;10.20;99.90;;;;;;5042633;28;20053;-74
2022/10/13 02:13:50;;;;;;;17.63;12.35;;;10.20;99.90;;;;;;5041949;28;20080;-74
2022/10/13 02:16:19;;;;;;;13.75;10.52;;;10.20;99.90;;;;;;5025858;28;20095;-74
2022/10/13 02:18:45;;;;;;;16.92;11.32;;;10.20;99.90;;;;;;5042485;28;20037;-74
2022/10/13 02:21:11;;;;;;;16.92;12.13;;;10.20;99.90;;;;;;5043477;28;20041;-74
2022/10/13 02:23:36;;;;;;;20.35;12.43;;;10.20;99.90;;;;;;5043078;28;20460;-74
2022/10/13 02:26:02;;;;;;;17.60;12.63;;;10.20;99.90;;;;;;5041440;28;20728;-75
2022/10/13 02:28:28;;;;;;;16.67;12.07;;;10.20;99.90;;;;;;5062882;28;20068;-74
2022/10/13 02:30:54;;;;;;;16.88;13.45;;;10.20;99.90;;;;;;5045298;28;20575;-74
2022/10/13 02:33:19;;;;;;;16.17;11.45;;;10.30;99.90;;;;;;5062079;28;20116;-75
2022/10/13 02:35:45;;;;;;;15.07;11.63;;;10.30;99.90;;;;;;5042848;28;20060;-74
2022/10/13 02:38:10;;;;;;;18.52;12.95;;;10.30;99.90;;;;;;5043478;28;20033;-74
2022/10/13 02:40:37;;;;;;;18.80;11.48;;;10.30;99.90;;;;;;5042507;28;20492;-74
2022/10/13 02:43:02;;;;;;;20.75;10.88;;;10.30;99.90;;;;;;5042323;28;20055;-75
2022/10/13 02:45:28;;;;;;;17.55;10.98;;;10.30;99.90;;;;;;5043329;28;20049;-75
2022/10/13 02:47:54;;;;;;;21.83;11.68;;;10.30;99.90;;;;;;5042507;28;20092;-74
2022/10/13 02:50:19;;;;;;;22.98;13.75;;;10.30;99.90;;;;;;5025296;28;20163;-74
2022/10/13 02:52:45;;;;;;;16.30;10.85;;;10.30;99.90;;;;;;5027739;28;20056;-74
2022/10/13 02:55:11;;;;;;;16.25;10.45;;;10.30;99.90;;;;;;5046567;28;20504;-74
2022/10/13 02:57:36;;;;;;;18.85;13.27;;;10.30;99.90;;;;;;5045292;28;20049;-75
2022/10/13 03:00:04;;;;;;;16.35;11.85;;;10.30;99.90;;;;;;5046202;28;20101;-75
2022/10/13 03:02:30;;;;;;;16.42;11.48;;;10.30;99.90;;;;;;5046748;28;20564;-74
2022/10/13 03:04:55;;;;;;;16.60;11.55;;;10.30;99.90;;;;;;5046413;28;20123;-74
2022/10/13 03:07:21;;;;;;;19.80;13.95;;;10.30;99.90;;;;;;5028343;28;20053;-75
2022/10/13 03:09:47;;;;;;;16.08;12.85;;;10.30;99.90;;;;;;5046266;28;20207;-75
2022/10/13 03:12:12;;;;;;;14.25;11.52;;;10.30;99.90;;;;;;5045366;28;20491;-74
2022/10/13 03:14:38;;;;;;;26.35;13.35;;;10.40;99.90;;;;;;5045552;28;20052;-74
2022/10/13 03:17:04;;;;;;;22.02;14.38;;;10.40;99.90;;;;;;5046329;28;20041;-74
2022/10/13 03:19:30;;;;;;;22.10;14.10;;;10.40;99.90;;;;;;5028435;28;20044;-75
2022/10/13 03:21:56;;;;;;;20.75;12.55;;;10.40;99.90;;;;;;5045940;28;20048;-75
2022/10/13 03:24:22;;;;;;;20.73;13.35;;;10.40;99.90;;;;;;5048607;28;20036;-74
2022/10/13 03:26:47;;;;;;;18.73;12.85;;;10.40;99.90;;;;;;5064733;28;20040;-76
2022/10/13 03:29:14;;;;;;;28.98;12.90;;;10.40;99.90;;;;;;5066047;28;20048;-74
2022/10/13 03:31:40;;;;;;;14.05;10.65;;;10.40;99.90;;;;;;5065513;28;20068;-75
2022/10/13 03:34:07;;;;;;;23.92;14.38;;;10.40;99.90;;;;;;5057995;28;20080;-75
2022/10/13 03:36:33;;;;;;;18.38;13.23;;;10.40;99.90;;;;;;5027723;28;20045;-75
2022/10/13 03:38:58;;;;;;;17.67;11.50;;;10.40;99.90;;;;;;5046458;28;20048;-74
2022/10/13 03:41:24;;;;;;;24.30;13.23;;;10.40;99.90;;;;;;5045251;28;20041;-74
2022/10/13 03:43:49;;;;;;;15.02;11.32;;;10.40;99.90;;;;;;5044338;28;20067;-75
2022/10/13 03:46:16;;;;;;;25.35;15.60;;;10.40;99.90;;;;;;5045723;28;20095;-74
2022/10/13 03:48:42;;;;;;;16.65;12.70;;;10.50;99.90;;;;;;5044977;28;20088;-75
2022/10/13 03:51:11;;;;;;;24.88;14.73;;;10.40;99.90;;;;;;5027457;28;20048;-75
2022/10/13 03:53:37;;;;;;;18.90;12.38;;;10.50;99.90;;;;;;5045272;28;20247;-75
2022/10/13 03:56:04;;;;;;;22.25;15.80;;;10.50;99.90;;;;;;5027703;28;20483;-75
2022/10/13 03:58:30;;;;;;;23.02;14.85;;;10.50;99.90;;;;;;5045024;28;20041;-75
2022/10/13 04:01:00;;;;;;;22.17;14.38;;;10.50;99.90;;;;;;5044890;28;20043;-75
2022/10/13 04:03:26;;;;;;;23.60;15.80;;;10.50;99.90;;;;;;5045371;28;20053;-75
2022/10/13 04:05:52;;;;;;;24.08;16.65;;;10.50;99.90;;;;;;5044949;28;20104;-75
2022/10/13 04:08:17;;;;;;;26.77;16.23;;;10.50;99.90;;;;;;5045018;28;20048;-75
2022/10/13 04:10:43;;;;;;;26.83;17.35;;;10.50;99.90;;;;;;5027156;28;20045;-75
2022/10/13 04:13:08;;;;;;;25.85;15.10;;;10.50;99.90;;;;;;5043799;28;20056;-74
2022/10/13 04:15:40;;;;;;;22.02;14.68;;;10.50;99.90;;;;;;5044463;28;20076;-74
2022/10/13 04:18:07;;;;;;;22.33;16.15;;;10.50;99.90;;;;;;5045049;28;20093;-74
2022/10/13 04:20:38;;;;;;;26.15;15.50;;;10.50;99.90;;;;;;5044436;28;20049;-75
2022/10/13 04:23:03;;;;;;;26.30;16.33;;;10.50;99.90;;;;;;5027392;28;20045;-75
2022/10/13 04:25:29;;;;;;;22.52;14.68;;;10.50;99.90;;;;;;5051546;28;20044;-75
2022/10/13 04:27:54;;;;;;;24.48;16.48;;;10.50;99.90;;;;;;5043286;28;20123;-75
2022/10/13 04:30:20;;;;;;;21.25;14.30;;;10.50;99.90;;;;;;5026775;28;20060;-75
2022/10/13 04:32:45;;;;;;;31.85;16.30;;;10.50;99.90;;;;;;5044379;28;20045;-75
2022/10/13 04:35:11;;;;;;;27.58;19.00;;;10.50;99.90;;;;;;5026567;28;20594;-75
2022/10/13 04:37:36;;;;;;;24.38;16.58;;;10.50;99.90;;;;;;5026585;28;20083;-75
2022/10/13 04:40:02;;;;;;;38.40;19.00;;;10.50;99.90;;;;;;5046248;28;20040;-75
2022/10/13 04:42:28;;;;;;;27.63;15.82;;;10.50;99.90;;;;;;5043231;28;20033;-77
2022/10/13 04:44:53;;;;;;;20.42;16.15;;;10.50;99.90;;;;;;5043771;28;20064;-76
2022/10/13 04:47:19;;;;;;;21.60;15.73;;;10.50;99.90;;;;;;5044274;28;20589;-73
2022/10/13 04:49:44;;;;;;;26.40;16.58;;;10.50;99.90;;;;;;5044084;28;20107;-72
2022/10/13 04:52:10;;;;;;;28.85;20.20;;;10.50;99.90;;;;;;5044133;28;20045;-72
2022/10/13 04:54:36;;;;;;;25.27;17.52;;;10.50;99.90;;;;;;5025708;28;20128;-73
2022/10/13 04:57:01;;;;;;;29.05;16.15;;;10.50;99.90;;;;;;5043448;28;20041;-74
2022/10/13 04:59:27;;;;;;;21.70;17.08;;;10.50;99.90;;;;;;5043443;28;20040;-72
2022/10/13 05:01:53;;;;;;;26.48;16.83;;;10.50;99.90;;;;;;5035372;28;20037;-73
2022/10/13 05:04:19;;;;;;;23.17;17.52;;;10.50;99.90;;;;;;5039646;28;20128;-72
2022/10/13 05:06:45;;;;;;;20.52;14.93;;;10.50;99.90;;;;;;5043286;28;20119;-73
2022/10/13 05:09:16;;;;;;;31.77;17.92;;;10.50;99.90;;;;;;5043178;28;20059;-73
2022/10/13 05:11:42;;;;;;;32.78;17.90;;;10.50;99.90;;;;;;5040437;28;20133;-73
2022/10/13 05:14:08;;;;;;;26.42;18.10;;;10.50;99.90;;;;;;5043417;28;20040;-74
2022/10/13 05:16:33;;;;;;;31.23;19.63;;;10.50;99.90;;;;;;5043168;28;20036;-73
2022/10/13 05:18:59;;;;;;;29.70;19.02;;;10.50;99.90;;;;;;5044335;28;20033;-74
2022/10/13 05:21:27;;;;;;;27.92;17.75;;;10.50;99.90;;;;;;5041852;28;20037;-73
2022/10/13 05:23:54;;;;;;;27.23;17.30;;;10.50;99.90;;;;;;5039524;28;20094;-74
2022/10/13 05:26:23;;;;;;;31.70;18.95;;;10.50;99.90;;;;;;5043775;28;20098;-73
2022/10/13 05:28:49;;;;;;;24.33;18.40;;;10.50;99.90;;;;;;5041588;28;20040;-78
2022/10/13 05:31:15;;;;;;;32.38;18.70;;;10.50;99.90;;;;;;5042678;28;20041;-76
2022/10/13 05:33:42;;;;;;;26.13;18.25;;;10.60;99.90;;;;;;5043150;28;20120;-76
2022/10/13 05:36:11;;;;;;;29.98;17.80;;;10.60;99.90;;;;;;5025320;28;20436;-77
2022/10/13 05:38:37;;;;;;;26.10;19.08;;;10.50;99.90;;;;;;5037535;28;20514;-79
2022/10/13 05:41:08;;;;;;;28.15;18.35;;;10.60;99.90;;;;;;5040190;28;20083;-78
2022/10/13 05:43:34;;;;;;;37.47;19.58;;;10.50;99.90;;;;;;5033788;28;20565;-78
2022/10/13 05:46:00;;;;;;;28.20;18.60;;;10.60;99.90;;;;;;5043196;28;20036;-77
2022/10/13 05:48:27;;;;;;;29.20;20.45;;;10.50;99.90;;;;;;5042718;28;20044;-77
2022/10/13 05:50:54;;;;;;;35.00;21.88;;;10.60;99.90;;;;;;5042859;28;20060;-77
2022/10/13 05:53:22;;;;;;;35.85;22.60;;;10.60;99.90;;;;;;5042373;28;20042;-77
2022/10/13 05:55:49;;;;;;;34.92;20.63;;;10.60;99.90;;;;;;5030409;28;20038;-77
2022/10/13 05:58:15;;;;;;;37.03;22.33;;;10.60;99.90;;;;;;5042002;28;20110;-79
2022/10/13 06:00:42;;;;;;;38.10;23.33;;;10.60;99.90;;;;;;5042548;28;20060;-79
2022/10/13 06:03:14;;;;;;;37.75;23.90;;;10.60;99.90;;;;;;5042469;28;20040;-79
2022/10/13 06:05:41;;;;;;;34.50;21.10;;;10.60;99.90;;;;;;5051583;28;20106;-79
2022/10/13 06:08:08;;;;;;;34.85;22.27;;;10.60;99.90;;;;;;5035726;28;20061;-79
2022/10/13 06:10:36;;;;;;;35.83;22.05;;;10.60;99.90;;;;;;5040600;28;20407;-79
2022/10/13 06:13:01;;;;;;;46.70;25.02;;;10.60;99.90;;;;;;5049850;28;20037;-80
2022/10/13 06:15:27;;;;;;;38.47;21.90;;;10.70;99.90;;;;;;5017692;28;20051;-79
2022/10/13 06:17:52;;;;;;;35.20;23.33;;;10.70;99.90;;;;;;5045544;28;20083;-79
2022/10/13 06:20:19;;;;;;;39.40;23.50;;;10.70;99.90;;;;;;5043034;28;20041;-79
2022/10/13 06:22:45;;;;;;;42.70;22.75;;;10.70;99.90;;;;;;5042703;28;20052;-79
2022/10/13 06:25:10;;;;;;;33.63;23.25;;;10.70;99.90;;;;;;5037918;28;20040;-80
2022/10/13 06:27:36;;;;;;;39.03;25.60;;;10.70;99.90;;;;;;5044302;28;20542;-80
2022/10/13 06:30:02;;;;;;;40.95;24.65;;;10.70;99.90;;;;;;5047291;28;20044;-80
2022/10/13 06:32:28;;;;;;;45.25;25.20;;;10.70;99.90;;;;;;5046946;28;20037;-79
2022/10/13 06:34:54;;;;;;;35.53;22.88;;;10.70;99.90;;;;;;5028760;28;20053;-80
2022/10/13 06:37:19;;;;;;;39.03;24.05;;;10.70;99.90;;;;;;5029120;28;20090;-80
2022/10/13 06:39:45;;;;;;;39.40;26.10;;;10.70;99.90;;;;;;5027859;28;20501;-80
2022/10/13 06:42:11;;;;;;;35.80;23.23;;;10.70;99.90;;;;;;5045829;28;20033;-79
2022/10/13 06:44:37;;;;;;;41.47;24.25;;;10.70;99.90;;;;;;5028247;28;20037;-80
2022/10/13 06:47:04;;;;;;;40.38;26.85;;;10.80;99.90;;;;;;5028472;28;20805;-80
2022/10/13 06:49:29;;;;;;;34.30;24.27;;;10.80;99.90;;;;;;5046980;28;20431;-81
2022/10/13 06:51:55;;;;;;;43.05;24.75;;;10.80;99.90;;;;;;5045788;28;20040;-78
2022/10/13 06:54:21;;;;;;;43.92;25.70;;;10.80;99.90;;;;;;5051115;28;20650;-78
2022/10/13 06:56:46;;;;;;;43.25;25.30;;;10.80;99.90;;;;;;5065167;28;20036;-78
2022/10/13 06:59:12;;;;;;;37.47;24.55;;;10.90;99.90;;;;;;5059306;28;20132;-78
2022/10/13 07:01:38;;;;;;;45.78;28.17;;;10.90;99.90;;;;;;5043706;28;20044;-78
2022/10/13 07:04:03;;;;;;;44.15;26.05;;;10.90;99.90;;;;;;5045217;28;20044;-79
2022/10/13 07:06:29;;;;;;;47.53;26.42;;;10.90;99.90;;;;;;5027727;28;20515;-78
2022/10/13 07:08:54;;;;;;;45.63;26.73;;;11.00;99.90;;;;;;5042220;28;20521;-78
2022/10/13 07:11:20;;;;;;;64.82;32.50;;;11.00;99.90;;;;;;5041636;28;20033;-78
2022/10/13 07:13:46;;;;;;;50.70;29.20;;;11.00;99.90;;;;;;5044415;28;20045;-78
2022/10/13 07:16:11;;;;;;;70.15;31.95;;;11.10;99.90;;;;;;5045211;28;20065;-79
2022/10/13 07:18:37;;;;;;;53.10;30.20;;;11.10;99.90;;;;;;5044535;28;20398;-78
2022/10/13 07:21:03;;;;;;;55.25;33.65;;;11.10;99.90;;;;;;5045042;28;20041;-79
2022/10/13 07:23:29;;;;;;;54.80;32.20;;;11.10;99.90;;;;;;5045044;28;20182;-78
2022/10/13 07:25:56;;;;;;;60.30;32.97;;;11.20;99.90;;;;;;5031377;28;20491;-79
2022/10/13 07:28:24;;;;;;;59.67;32.25;;;11.20;99.90;;;;;;5043800;28;20044;-80
2022/10/13 07:30:49;;;;;;;63.08;36.55;;;11.20;99.90;;;;;;5046573;28;20080;-80
2022/10/13 07:33:15;;;;;;;69.80;35.30;;;11.20;99.90;;;;;;5051495;28;20520;-80
2022/10/13 07:35:40;;;;;;;66.93;36.70;;;11.20;99.90;;;;;;5045057;28;20048;-80
2022/10/13 07:38:07;;;;;;;65.38;35.22;;;11.30;99.90;;;;;;5044387;28;20041;-80
2022/10/13 07:40:33;;;;;;;67.03;37.80;;;11.30;99.90;;;;;;5044339;28;20045;-80
2022/10/13 07:42:59;;;;;;;64.15;34.00;;;11.30;99.90;;;;;;5044220;28;20041;-80
2022/10/13 07:45:25;;;;;;;71.72;40.28;;;11.30;99.90;;;;;;5044167;28;20424;-80
2022/10/13 07:47:50;;;;;;;75.32;39.83;;;11.40;99.90;;;;;;5044074;28;20186;-80
2022/10/13 07:50:16;;;;;;;61.70;36.53;;;11.40;99.90;;;;;;5044276;28;20154;-80
2022/10/13 07:52:42;;;;;;;76.72;41.08;;;11.40;99.90;;;;;;5042999;28;20045;-80
2022/10/13 07:55:08;;;;;;;74.47;38.30;;;11.50;99.90;;;;;;5043879;28;20044;-80
2022/10/13 07:57:33;;;;;;;73.90;42.58;;;11.50;99.90;;;;;;5043304;28;20044;-80
2022/10/13 07:59:59;;;;;;;85.63;43.80;;;11.50;99.90;;;;;;5044569;28;20110;-80
2022/10/13 08:02:25;;;;;;;75.28;40.83;;;11.60;99.90;;;;;;5044065;28;20156;-80
2022/10/13 08:04:51;;;;;;;78.95;44.20;;;11.60;99.90;;;;;;5043734;28;20348;-80
2022/10/13 08:07:17;;;;;;;82.40;42.75;;;11.60;99.90;;;;;;5043764;28;20087;-80
2022/10/13 08:09:44;;;;;;;85.72;46.55;;;11.70;99.90;;;;;;5043330;28;20130;-80
2022/10/13 08:12:11;;;;;;;104.85;44.05;;;11.70;99.90;;;;;;5043151;28;20081;-80
2022/10/13 08:14:36;;;;;;;95.80;45.28;;;11.70;99.90;;;;;;5043434;28;20041;-80
2022/10/13 08:17:02;;;;;;;88.88;45.17;;;11.80;99.90;;;;;;5043715;28;20082;-80
2022/10/13 08:19:27;;;;;;;91.55;42.72;;;11.80;99.90;;;;;;5043661;28;20041;-80
2022/10/13 08:21:54;;;;;;;83.38;45.00;;;11.80;99.90;;;;;;5043180;28;20052;-80
2022/10/13 08:24:23;;;;;;;88.05;44.55;;;11.80;99.90;;;;;;5027274;28;20120;-80
2022/10/13 08:26:49;;;;;;;89.15;41.83;;;11.90;99.90;;;;;;5062333;28;20087;-80
2022/10/13 08:29:15;;;;;;;96.13;47.60;;;11.90;99.90;;;;;;5063615;28;20029;-80
2022/10/13 08:31:41;;;;;;;88.57;45.42;;;12.00;99.90;;;;;;5045317;28;20221;-80
2022/10/13 08:34:09;;;;;;;86.32;45.45;;;12.00;99.90;;;;;;5063482;28;20041;-79
2022/10/13 08:36:34;;;;;;;89.50;45.03;;;12.00;99.90;;;;;;5062885;28;20044;-80
2022/10/13 08:39:00;;;;;;;89.60;43.83;;;12.10;99.90;;;;;;5045445;28;20049;-79
2022/10/13 08:41:30;;;;;;;85.80;44.38;;;12.10;99.90;;;;;;5062294;28;20044;-80
2022/10/13 08:44:11;;;;;;;93.50;44.80;;;12.20;99.90;;;;;;5062570;28;20103;-80
2022/10/13 08:46:56;;;;;;;77.72;41.95;;;12.20;99.90;;;;;;5062814;28;20044;-80
2022/10/13 08:49:22;;;;;;;87.93;47.20;;;12.30;99.90;;;;;;5062713;28;20390;-80
2022/10/13 08:51:47;;;;;;;87.25;47.33;;;12.30;99.90;;;;;;5044718;28;20048;-80
2022/10/13 08:54:16;;;;;;;89.90;45.10;;;12.30;99.90;;;;;;5062553;28;20052;-80
2022/10/13 08:56:45;;;;;;;89.63;45.42;;;12.40;99.90;;;;;;5061408;28;20101;-79
2022/10/13 08:59:15;;;;;;;88.72;45.00;;;12.40;99.90;;;;;;5062796;28;20128;-80
2022/10/13 09:01:42;;;;;;;80.65;43.42;;;12.40;99.90;;;;;;5062321;28;20048;-80
2022/10/13 09:04:31;;;;;;;82.78;40.03;;;12.40;99.90;;;;;;5062799;28;20124;-80
2022/10/13 09:07:30;;;;;;;74.63;40.47;;;12.50;99.90;;;;;;5045208;28;20056;-80
2022/10/13 09:09:56;;;;;;;81.03;39.08;;;12.60;99.90;;;;;;5044327;28;20102;-80
2022/10/13 09:12:23;;;;;;;71.90;39.58;;;12.60;99.90;;;;;;5061666;28;20040;-79
2022/10/13 09:15:08;;;;;;;85.93;40.53;;;12.60;99.90;;;;;;5061833;28;20041;-80
2022/10/13 09:17:35;;;;;;;79.40;39.28;;;12.60;99.90;;;;;;5062433;28;20045;-80
2022/10/13 09:20:19;;;;;;;78.13;36.70;;;12.70;99.90;;;;;;5062528;28;20047;-80
2022/10/13 09:23:05;;;;;;;92.95;43.97;;;12.60;99.90;;;;;;5043853;28;20041;-80
2022/10/13 09:25:43;;;;;;;81.57;43.05;;;12.70;99.90;;;;;;5033123;28;20041;-80
2022/10/13 09:28:15;;;;;;;69.68;39.47;;;12.70;99.90;;;;;;5023638;28;20063;-80
2022/10/13 09:30:42;;;;;;;;;;;12.70;99.90;;;;;;5024548;28;20068;-80
2022/10/13 09:33:08;;;;;;;85.05;39.40;;;12.80;99.90;;;;;;5023975;28;19974;-80
2022/10/13 09:35:41;;;;;;;72.18;39.70;;;12.80;99.90;;;;;;5041706;28;20041;-80
2022/10/13 09:38:33;;;;;;;81.68;39.15;;;12.70;99.90;;;;;;5041983;28;20091;-80
2022/10/13 09:41:04;;;;;;;83.47;41.25;;;12.80;99.90;;;;;;5039121;28;20470;-80
2022/10/13 09:43:33;;;;;;;85.30;43.95;;;12.80;99.90;;;;;;5042676;28;20048;-80
2022/10/13 09:46:01;;;;;;;98.28;46.33;;;12.80;99.90;;;;;;5042538;28;20040;-80
2022/10/13 09:48:34;;;;;;;78.45;40.15;;;12.90;99.90;;;;;;5042483;28;20063;-80
2022/10/13 09:51:01;;;;;;;85.78;41.20;;;12.90;99.90;;;;;;5042610;28;20052;-80
2022/10/13 09:53:36;;;;;;;89.55;44.65;;;12.90;99.90;;;;;;5024410;28;20407;-80
2022/10/13 09:56:28;;;;;;;86.68;41.88;;;13.00;99.90;;;;;;5041213;28;20069;-80
2022/10/13 09:59:24;;;;;;;62.50;35.60;;;13.00;99.90;;;;;;5038472;28;20070;-79
2022/10/13 10:01:53;;;;;;;72.28;35.70;;;13.10;99.90;;;;;;5033752;28;20218;-80
2022/10/13 10:04:24;;;;;;;65.32;38.08;;;13.10;99.90;;;;;;5047785;28;20116;-80
2022/10/13 10:06:50;;;;;;;75.82;36.10;;;13.20;99.90;;;;;;5030838;28;20048;-80
2022/10/13 10:09:35;;;;;;;72.50;36.10;;;13.20;99.90;;;;;;5049106;28;20049;-79
2022/10/13 10:12:03;;;;;;;72.97;36.05;;;13.20;99.90;;;;;;5031215;28;20381;-80
2022/10/13 10:14:37;;;;;;;73.78;37.53;;;13.20;99.90;;;;;;5031032;28;20720;-79
2022/10/13 10:17:21;;;;;;;65.43;36.78;;;13.30;99.90;;;;;;5050817;28;20087;-80
2022/10/13 10:20:18;;;;;;;64.75;33.65;;;13.30;99.90;;;;;;5068614;28;20375;-80
2022/10/13 10:23:09;;;;;;;65.65;31.27;;;13.30;99.90;;;;;;5068805;28;20090;-80
2022/10/13 10:25:46;;;;;;;58.45;31.80;;;13.40;99.90;;;;;;5056465;28;20561;-79
2022/10/13 10:28:30;;;;;;;65.30;32.65;;;13.40;99.90;;;;;;5049117;28;20118;-80
2022/10/13 10:31:05;;;;;;;64.35;33.08;;;13.40;99.90;;;;;;5048624;28;20083;-80
2022/10/13 10:33:55;;;;;;;55.80;32.15;;;13.50;99.90;;;;;;5049426;28;20044;-80
2022/10/13 10:36:25;;;;;;;50.58;26.38;;;13.50;99.90;;;;;;5049001;28;20040;-79
2022/10/13 10:38:58;;;;;;;53.67;26.08;;;13.40;99.90;;;;;;5048581;28;20044;-80
2022/10/13 10:41:36;;;;;;;56.10;29.38;;;13.50;99.90;;;;;;5048144;28;20677;-80
2022/10/13 10:44:29;;;;;;;50.53;27.42;;;13.50;99.90;;;;;;5030792;28;20052;-80
2022/10/13 10:47:00;;;;;;;59.50;27.27;;;13.50;99.90;;;;;;5048493;28;20045;-80
2022/10/13 10:49:28;;;;;;;48.30;26.20;;;13.50;99.90;;;;;;5048795;28;20466;-79
2022/10/13 10:51:54;;;;;;;43.58;22.92;;;13.50;99.90;;;;;;5048293;28;20045;-80
2022/10/13 10:54:25;;;;;;;46.17;25.00;;;13.50;99.90;;;;;;5048774;28;20110;-80
2022/10/13 10:56:59;;;;;;;45.03;23.00;;;13.60;99.90;;;;;;5047865;28;20501;-80
2022/10/13 10:59:57;;;;;;;41.92;22.25;;;13.60;99.90;;;;;;5039462;28;20118;-79
2022/10/13 11:02:37;;;;;;;36.00;22.27;;;13.60;99.90;;;;;;5021514;28;20039;-80
2022/10/13 11:05:04;;;;;;;38.38;21.38;;;13.60;99.90;;;;;;5040639;28;20056;-80
2022/10/13 11:07:29;;;;;;;40.25;19.08;;;13.60;99.90;;;;;;5041172;28;20052;-80
2022/10/13 11:09:56;;;;;;;40.38;21.13;;;13.70;99.90;;;;;;5063185;28;20040;-79
2022/10/13 11:12:22;;;;;;;33.92;19.63;;;13.70;99.90;;;;;;5055550;28;20788;-81
2022/10/13 11:15:01;;;;;;;22.45;12.75;;;13.80;99.90;;;;;;5052405;28;20501;-80
2022/10/13 11:17:30;;;;;;;9.95;7.40;;;13.80;99.90;;;;;;5034018;28;20044;-80
2022/10/13 11:19:57;;;;;;;10.77;6.90;;;13.80;99.90;;;;;;5048819;28;20182;-80
2022/10/13 11:22:27;;;;;;;11.00;5.95;;;13.80;99.90;;;;;;5026945;28;20048;-80
2022/10/13 11:25:21;;;;;;;6.82;4.72;;;13.90;99.90;;;;;;5051847;28;20052;-80
2022/10/13 11:27:47;;;;;;;8.45;4.05;;;13.90;99.90;;;;;;5064134;28;20044;-80
2022/10/13 11:30:46;;;;;;;5.70;3.28;;;13.80;99.90;;;;;;5065416;28;20047;-79
2022/10/13 11:33:31;;;;;;;17.13;5.40;;;13.90;99.90;;;;;;5047485;28;20064;-80
2022/10/13 11:35:57;;;;;;;9.90;4.63;;;13.90;99.90;;;;;;5065558;28;20044;-80
2022/10/13 11:38:33;;;;;;;12.73;4.75;;;13.90;99.90;;;;;;5063937;28;20098;-80
2022/10/13 11:41:14;;;;;;;4.22;3.10;;;13.90;99.90;;;;;;5045941;28;20114;-80
2022/10/13 11:43:45;;;;;;;7.35;4.63;;;14.00;99.90;;;;;;5046370;28;20059;-80
2022/10/13 11:46:36;;;;;;;11.38;5.63;;;14.00;99.90;;;;;;5064244;28;20359;-80
2022/10/13 11:49:21;;;;;;;10.30;3.97;;;14.00;99.90;;;;;;5064494;28;20545;-80
2022/10/13 11:52:05;;;;;;;9.65;3.58;;;14.00;99.90;;;;;;5045735;28;20102;-80
2022/10/13 11:54:47;;;;;;;7.30;3.90;;;14.10;99.90;;;;;;5064384;28;20040;-80
2022/10/13 11:57:22;;;;;;;4.80;3.35;;;14.10;99.90;;;;;;5045455;28;20063;-80
2022/10/13 11:59:51;;;;;;;3.83;2.80;;;14.10;99.90;;;;;;5063103;28;20115;-80
2022/10/13 12:02:17;;;;;;;6.72;2.97;;;14.10;99.90;;;;;;5046167;28;20603;-80
2022/10/13 12:04:57;;;;;;;7.70;2.53;;;14.10;99.90;;;;;;5063617;28;20066;-80
2022/10/13 12:07:25;;;;;;;5.43;2.65;;;14.10;99.90;;;;;;5064057;28;20044;-80
2022/10/13 12:09:51;;;;;;;4.93;3.55;;;14.10;99.90;;;;;;5045083;28;20175;-80
2022/10/13 12:12:19;;;;;;;3.92;3.22;;;14.10;99.90;;;;;;5062888;28;20052;-80
2022/10/13 12:14:49;;;;;;;8.18;4.45;;;14.10;99.90;;;;;;5063774;28;20228;-80
2022/10/13 12:17:37;;;;;;;5.05;3.53;;;14.20;99.90;;;;;;5045966;28;20052;-80
2022/10/13 12:20:21;;;;;;;4.03;2.92;;;14.20;99.90;;;;;;5063234;28;20562;-80
2022/10/13 12:22:47;;;;;;;3.13;2.42;;;14.20;99.90;;;;;;5014589;28;20040;-80
2022/10/13 12:25:22;;;;;;;3.80;2.08;;;14.20;99.90;;;;;;5056183;28;20037;-80
2022/10/13 12:27:51;;;;;;;13.45;2.95;;;14.20;99.90;;;;;;5043596;28;20049;-80
2022/10/13 12:30:35;;;;;;;3.17;2.70;;;14.20;99.90;;;;;;5042892;28;20048;-80
2022/10/13 12:33:01;;;;;;;4.78;2.30;;;14.20;99.90;;;;;;5044182;28;20122;-80
2022/10/13 12:35:31;;;;;;;4.90;2.28;;;14.20;99.90;;;;;;5042700;28;20120;-80
2022/10/13 12:38:05;;;;;;;3.63;2.22;;;14.20;99.90;;;;;;5042393;28;20029;-80
2022/10/13 12:40:31;;;;;;;3.85;2.30;;;14.20;99.90;;;;;;5042175;28;20102;-80
2022/10/13 12:42:56;;;;;;;2.33;1.98;;;14.20;99.90;;;;;;5025871;28;20052;-80